Sky Lease Cargo B744 at Honolulu on Aug 23rd 2018, overran runway on landing and ran into barriers

Last Update: August 24, 2018 / 15:43:29 GMT/Zulu time

Bookmark this article
Incident Facts

Date of incident
Aug 23, 2018

Classification
Incident

Flight number
GG-1738

Aircraft Registration
N904AR

Aircraft Type
Boeing 747-400

ICAO Type Designator
B744

Airport ICAO Code
PHNL

A Sky Lease Cargo Boeing 747-400, registration N904AR performing flight GG-1738 from San Francisco,CA to Honolulu,HI (USA), landed on Honolulu's runway 08L shortened at 13:04L (23:04Z), when tower called "hey, on runway 08L stop! Stop! 1738, hold short!" The crew confirmed "holding short". Tower subsequently instructed the aircraft to make a 180 at minimum power and subsequently instructed to hold position. The next approaches were instructed to go around.

The FAA reported the aircraft overran the (displaced) end of the runway and ran into barriers. There was no damage.

The runway was closed for about 45 minutes until the aircraft was towed off the runway. The last 3200 feet of runway 08L were not available due to work in progress on the runway's arrestor bed.

Related NOTAM:
08/038 (A2621/18) - RWY 08L/26R E 3200FT CLSD. DECLARED DIST:
RWY 08L TORA 9100FT TODA 9100FT ASDA 9100FT LDA 9100FT.
RWY 26R TORA 8100FT TODA 8100FT ASDA 8100FT LDA 0FT. 06 AUG 15:00 2018 UNTIL 21 SEP 02:00 2018. CREATED: 05 AUG 18:08 2018

Metars:
PHNL 240153Z 06013G25KT 10SM -RA FEW027 SCT075 BKN110 OVC150 27/22 A2985 RMK AO2 RAB01 SLP108 P0000 T02670217=
PHNL 240053Z 06014KT 10SM FEW025 SCT065 SCT120 OVC150 27/22 A2984 RMK AO2 PK WND 07029/0024 RAE44 SLP105 P0000 T02720217=
PHNL 232353Z 06018KT 10SM -RA FEW031 BKN075 BKN090 OVC130 27/23 A2987 RMK AO2 PK WND 06028/2331 SLP115 P0000 60000 T02670228 10283 20267 58017=
PHNL 232253Z 05015G22KT 10SM -RA FEW024 SCT045 BKN075 28/22 A2990 RMK AO2 RAE21B53 SLP124 VCSH NE P0000 T02830217=
PHNL 232153Z 06015KT 10SM -RA FEW024 FEW040 SCT110 BKN140 28/22 A2992 RMK AO2 RAB21E24B51 SLP132 P0000 T02780217=
PHNL 232053Z 05017G26KT 10SM FEW023 FEW040 SCT080 OVC160 28/22 A2992 RMK AO2 PK WND 06026/2050 RAB35E46 SLP132 VCSH N P0000 60000 T02780222 50001=
PHNL 231953Z 06016KT 10SM FEW022 SCT030 BKN140 27/22 A2993 RMK AO2 SLP135 VCSH N T02720222=
PHNL 231853Z 05012KT 10SM FEW024 FEW040 SCT060 OVC200 27/22 A2993 RMK AO2 SLP133 VCSH E T02720222=
Aircraft Registration Data
Registration mark
N904AR
Country of Registration
United States
Date of Registration
Hmlfqlplmkiiipp Subscribe to unlock
Manufacturer
BOEING
Aircraft Model / Type
747-428F
Number of Seats
ICAO Aircraft Type
B744
Year of Manufacture
Serial Number
Aircraft Address / Mode S Code (HEX)
Engine Count
Engine Manufacturer
Engine Model
Engine Type
Pounds of Thrust
Main Owner
Nenljigp ejclkbAfkeggcbefbllhfqmqpldkchegcfAplbqhidnAqhikj lqpdnemkfjelAbgeneki bfhhljdnl Subscribe to unlock
Incident Facts

Date of incident
Aug 23, 2018

Classification
Incident

Flight number
GG-1738

Aircraft Registration
N904AR

Aircraft Type
Boeing 747-400

ICAO Type Designator
B744

Airport ICAO Code
PHNL

This article is published under license from Avherald.com. © of text by Avherald.com.
Article source

You can read 4 more free articles without a subscription.

Subscribe now and continue reading without any limits!

Are you a subscriber?
Login
Subscribe

Read unlimited articles and receive our daily update briefing. Gain better insights into what is happening in commercial aviation safety.

Free newsletter

Want to know more and stay ahead? Get our free weekly newsletter and join 5243 existing subscribers.

By subscribing, you accept our terms and conditions and confirm that you've read our privacy policy.

Send tip

Support AeroInside by sending a small tip amount.

Newest articles

Subscribe today

Are you researching aviation incidents? Get access to AeroInside Insights, unlimited read access and receive the daily newsletter.

Pick your plan and subscribe

Partner

Blockaviation logo

A new way to document and demonstrate airworthiness compliance and aircraft value. Find out more.

Virtual Speech logo

ELITE Simulation Solutions is a leading global provider of Flight Simulation Training Devices, IFR training software as well as flight controls and related services. Find out more.

Get updates

Never miss an article from AeroInside. Subscribe to our free weekly newsletter and join 5243 existing subscribers.

By subscribing, you accept our terms and conditions and that you've read our privacy policy.

AeroInside Blog
Popular aircraft
Airbus A320
Boeing 737-800
Boeing 737-800 MAX
Popular airlines
American Airlines
United
Delta
Air Canada
Lufthansa
British Airways